If you wish to contribute or participate in the discussions about articles you are invited to join SKYbrary as a registered user

 Actions

Ahwaz

From SKYbrary Wiki

OIAW
Airport
ICAO: OIAW
Summary
Name Ahwaz
Region Middle East
Territory Iran IR.gif
Location Ahwaz
Serving
Coordinates 31° 20' 15", 48° 45' 37.0008"
Runways
Designator Length Width Surface ROPS
12/30 3398 m11,148.294 ft 45 m147.638 ft ASP yes/yes
METAR
Observation OIAW 140000Z 09002KT 7000 NSC 07/00 Q1016
Station Ahwaz
Date/Time 14 December 2017 00:00:00
Wind direction 90°
Wind speed 02 kts
Lowest cloud amount nil significant cloud
Temperature 7°C
Dew point 0°C
Humidity 61%
QNH 1016 hPa
Weather condition n/a


Ahwaz Airport

ICAO: OIAW IATA: AWZ

Description

Airport serving Ahwaz, west Iran.

Climatology

Hot Desert Climate (Köppen climate classification BWh) - Hot desert climates are typically found in the subtropics where there is unbroken sunshine for the whole year due to the stable descending air and high pressure, little or no precipitation. Maximum temperatures of 40°C to 45°C are not uncommon, particularly during the warmer months of the year. During colder periods of the year, night-time temperatures can drop to freezing or below due to the exceptional radiation loss under the clear skies. However, very rarely do temperatures drop far below freezing.

Maps

Terrain

Loading map...

Airport Layout

Loading map...



Accidents & Serious Incidents at or in vicinity of OIAW

None on SKYbrary